sensor_id;sensor_type;location;lat;lon;timestamp;P1;durP1;ratioP1;P2;durP2;ratioP2
13895;SDS011;7018;50.838;4.226;2024-02-26T00:02:09;0.50;;;0.50;;
13895;SDS011;7018;50.838;4.226;2024-02-26T00:04:36;0.40;;;0.40;;
13895;SDS011;7018;50.838;4.226;2024-02-26T00:07:04;0.30;;;0.30;;
13895;SDS011;7018;50.838;4.226;2024-02-26T00:09:32;0.40;;;0.40;;
13895;SDS011;7018;50.838;4.226;2024-02-26T00:12:02;0.30;;;0.30;;
13895;SDS011;7018;50.838;4.226;2024-02-26T00:14:31;0.30;;;0.30;;
13895;SDS011;7018;50.838;4.226;2024-02-26T00:16:59;0.40;;;0.40;;
13895;SDS011;7018;50.838;4.226;2024-02-26T00:19:27;0.43;;;0.43;;
13895;SDS011;7018;50.838;4.226;2024-02-26T00:21:55;0.30;;;0.30;;
13895;SDS011;7018;50.838;4.226;2024-02-26T00:24:22;0.33;;;0.33;;
13895;SDS011;7018;50.838;4.226;2024-02-26T00:26:50;0.40;;;0.40;;
13895;SDS011;7018;50.838;4.226;2024-02-26T00:29:21;0.30;;;0.30;;
13895;SDS011;7018;50.838;4.226;2024-02-26T00:31:48;0.40;;;0.40;;
13895;SDS011;7018;50.838;4.226;2024-02-26T00:34:16;0.30;;;0.30;;
13895;SDS011;7018;50.838;4.226;2024-02-26T00:36:44;0.30;;;0.30;;
13895;SDS011;7018;50.838;4.226;2024-02-26T00:39:12;0.30;;;0.30;;
13895;SDS011;7018;50.838;4.226;2024-02-26T00:41:40;0.50;;;0.50;;
13895;SDS011;7018;50.838;4.226;2024-02-26T00:44:08;0.30;;;0.30;;
13895;SDS011;7018;50.838;4.226;2024-02-26T00:46:36;0.33;;;0.33;;
13895;SDS011;7018;50.838;4.226;2024-02-26T00:49:04;0.30;;;0.30;;
13895;SDS011;7018;50.838;4.226;2024-02-26T00:51:32;0.40;;;0.40;;
13895;SDS011;7018;50.838;4.226;2024-02-26T00:53:59;0.40;;;0.40;;
13895;SDS011;7018;50.838;4.226;2024-02-26T00:56:27;0.30;;;0.30;;
13895;SDS011;7018;50.838;4.226;2024-02-26T00:58:55;0.40;;;0.40;;
13895;SDS011;7018;50.838;4.226;2024-02-26T01:01:23;0.40;;;0.40;;
13895;SDS011;7018;50.838;4.226;2024-02-26T01:03:50;0.30;;;0.30;;
13895;SDS011;7018;50.838;4.226;2024-02-26T01:06:18;0.37;;;0.37;;
13895;SDS011;7018;50.838;4.226;2024-02-26T01:08:46;0.30;;;0.30;;
13895;SDS011;7018;50.838;4.226;2024-02-26T01:11:13;0.40;;;0.40;;
13895;SDS011;7018;50.838;4.226;2024-02-26T01:13:41;0.30;;;0.30;;
13895;SDS011;7018;50.838;4.226;2024-02-26T01:16:09;0.43;;;0.43;;
13895;SDS011;7018;50.838;4.226;2024-02-26T01:18:37;0.30;;;0.30;;
13895;SDS011;7018;50.838;4.226;2024-02-26T01:21:05;0.40;;;0.40;;
13895;SDS011;7018;50.838;4.226;2024-02-26T01:23:35;0.20;;;0.20;;
13895;SDS011;7018;50.838;4.226;2024-02-26T01:26:03;0.30;;;0.30;;
13895;SDS011;7018;50.838;4.226;2024-02-26T01:28:31;0.37;;;0.37;;
13895;SDS011;7018;50.838;4.226;2024-02-26T01:30:59;0.30;;;0.30;;
13895;SDS011;7018;50.838;4.226;2024-02-26T01:33:27;0.30;;;0.30;;
13895;SDS011;7018;50.838;4.226;2024-02-26T01:35:54;0.40;;;0.40;;
13895;SDS011;7018;50.838;4.226;2024-02-26T01:38:22;0.30;;;0.30;;
13895;SDS011;7018;50.838;4.226;2024-02-26T01:40:50;0.30;;;0.30;;
13895;SDS011;7018;50.838;4.226;2024-02-26T01:43:17;0.30;;;0.30;;
13895;SDS011;7018;50.838;4.226;2024-02-26T01:45:46;0.30;;;0.30;;
13895;SDS011;7018;50.838;4.226;2024-02-26T01:48:14;0.30;;;0.30;;
13895;SDS011;7018;50.838;4.226;2024-02-26T01:50:42;0.33;;;0.33;;
13895;SDS011;7018;50.838;4.226;2024-02-26T01:53:10;0.30;;;0.30;;
13895;SDS011;7018;50.838;4.226;2024-02-26T01:55:38;0.20;;;0.20;;
13895;SDS011;7018;50.838;4.226;2024-02-26T01:58:06;0.20;;;0.20;;
13895;SDS011;7018;50.838;4.226;2024-02-26T02:00:34;0.30;;;0.30;;
13895;SDS011;7018;50.838;4.226;2024-02-26T02:03:02;0.30;;;0.30;;
13895;SDS011;7018;50.838;4.226;2024-02-26T02:05:31;0.30;;;0.30;;
13895;SDS011;7018;50.838;4.226;2024-02-26T02:07:58;0.30;;;0.30;;
13895;SDS011;7018;50.838;4.226;2024-02-26T02:10:26;0.20;;;0.20;;
13895;SDS011;7018;50.838;4.226;2024-02-26T02:12:55;0.20;;;0.20;;
13895;SDS011;7018;50.838;4.226;2024-02-26T02:15:23;0.30;;;0.30;;
13895;SDS011;7018;50.838;4.226;2024-02-26T02:17:50;0.20;;;0.20;;
13895;SDS011;7018;50.838;4.226;2024-02-26T02:20:18;0.20;;;0.20;;
13895;SDS011;7018;50.838;4.226;2024-02-26T02:22:46;0.30;;;0.30;;
13895;SDS011;7018;50.838;4.226;2024-02-26T02:25:14;0.30;;;0.30;;
13895;SDS011;7018;50.838;4.226;2024-02-26T02:27:42;0.30;;;0.30;;
13895;SDS011;7018;50.838;4.226;2024-02-26T02:30:10;0.20;;;0.20;;
13895;SDS011;7018;50.838;4.226;2024-02-26T02:32:39;0.23;;;0.23;;
13895;SDS011;7018;50.838;4.226;2024-02-26T02:35:08;0.20;;;0.20;;
13895;SDS011;7018;50.838;4.226;2024-02-26T02:37:36;0.23;;;0.23;;
13895;SDS011;7018;50.838;4.226;2024-02-26T02:40:04;0.40;;;0.40;;
13895;SDS011;7018;50.838;4.226;2024-02-26T02:42:32;0.37;;;0.37;;
13895;SDS011;7018;50.838;4.226;2024-02-26T02:44:59;0.30;;;0.30;;
13895;SDS011;7018;50.838;4.226;2024-02-26T02:47:27;0.23;;;0.23;;
13895;SDS011;7018;50.838;4.226;2024-02-26T02:49:55;0.30;;;0.30;;
13895;SDS011;7018;50.838;4.226;2024-02-26T02:52:23;0.20;;;0.20;;
13895;SDS011;7018;50.838;4.226;2024-02-26T02:54:50;0.20;;;0.20;;
13895;SDS011;7018;50.838;4.226;2024-02-26T02:57:18;0.30;;;0.30;;
13895;SDS011;7018;50.838;4.226;2024-02-26T02:59:46;0.23;;;0.23;;
13895;SDS011;7018;50.838;4.226;2024-02-26T03:02:14;0.20;;;0.20;;
13895;SDS011;7018;50.838;4.226;2024-02-26T03:04:42;0.30;;;0.30;;
13895;SDS011;7018;50.838;4.226;2024-02-26T03:07:09;0.30;;;0.30;;
13895;SDS011;7018;50.838;4.226;2024-02-26T03:09:37;0.20;;;0.20;;
13895;SDS011;7018;50.838;4.226;2024-02-26T03:12:05;0.30;;;0.30;;
13895;SDS011;7018;50.838;4.226;2024-02-26T03:14:33;0.20;;;0.20;;
13895;SDS011;7018;50.838;4.226;2024-02-26T03:17:00;0.30;;;0.30;;
13895;SDS011;7018;50.838;4.226;2024-02-26T03:19:29;0.20;;;0.20;;
13895;SDS011;7018;50.838;4.226;2024-02-26T03:21:56;0.30;;;0.30;;
13895;SDS011;7018;50.838;4.226;2024-02-26T03:24:24;0.30;;;0.30;;
13895;SDS011;7018;50.838;4.226;2024-02-26T03:26:52;0.20;;;0.20;;
13895;SDS011;7018;50.838;4.226;2024-02-26T03:29:20;0.23;;;0.23;;
13895;SDS011;7018;50.838;4.226;2024-02-26T03:31:47;0.20;;;0.20;;
13895;SDS011;7018;50.838;4.226;2024-02-26T03:34:15;0.20;;;0.20;;
13895;SDS011;7018;50.838;4.226;2024-02-26T03:36:44;0.20;;;0.20;;
13895;SDS011;7018;50.838;4.226;2024-02-26T03:39:12;0.20;;;0.20;;
13895;SDS011;7018;50.838;4.226;2024-02-26T03:41:40;0.20;;;0.20;;
13895;SDS011;7018;50.838;4.226;2024-02-26T03:44:07;0.20;;;0.20;;
13895;SDS011;7018;50.838;4.226;2024-02-26T03:46:36;0.20;;;0.20;;
13895;SDS011;7018;50.838;4.226;2024-02-26T03:49:03;0.20;;;0.20;;
13895;SDS011;7018;50.838;4.226;2024-02-26T03:51:31;0.20;;;0.20;;
13895;SDS011;7018;50.838;4.226;2024-02-26T03:53:59;0.20;;;0.20;;
13895;SDS011;7018;50.838;4.226;2024-02-26T03:56:27;0.20;;;0.20;;
13895;SDS011;7018;50.838;4.226;2024-02-26T03:58:55;0.20;;;0.20;;
13895;SDS011;7018;50.838;4.226;2024-02-26T04:01:23;0.27;;;0.27;;
13895;SDS011;7018;50.838;4.226;2024-02-26T04:03:51;0.20;;;0.20;;
13895;SDS011;7018;50.838;4.226;2024-02-26T04:06:19;0.10;;;0.10;;
13895;SDS011;7018;50.838;4.226;2024-02-26T04:08:47;0.20;;;0.20;;
13895;SDS011;7018;50.838;4.226;2024-02-26T04:11:15;0.20;;;0.20;;
13895;SDS011;7018;50.838;4.226;2024-02-26T04:13:45;0.13;;;0.13;;
13895;SDS011;7018;50.838;4.226;2024-02-26T04:16:15;0.27;;;0.27;;
13895;SDS011;7018;50.838;4.226;2024-02-26T04:18:43;0.20;;;0.20;;
13895;SDS011;7018;50.838;4.226;2024-02-26T04:21:11;0.20;;;0.20;;
13895;SDS011;7018;50.838;4.226;2024-02-26T04:23:39;0.20;;;0.20;;
13895;SDS011;7018;50.838;4.226;2024-02-26T04:26:07;0.20;;;0.20;;
13895;SDS011;7018;50.838;4.226;2024-02-26T04:28:34;0.20;;;0.20;;
13895;SDS011;7018;50.838;4.226;2024-02-26T04:31:02;0.33;;;0.33;;
13895;SDS011;7018;50.838;4.226;2024-02-26T04:33:30;0.20;;;0.20;;
13895;SDS011;7018;50.838;4.226;2024-02-26T04:35:57;0.30;;;0.30;;
13895;SDS011;7018;50.838;4.226;2024-02-26T04:38:26;0.10;;;0.10;;
13895;SDS011;7018;50.838;4.226;2024-02-26T04:40:54;0.20;;;0.20;;
13895;SDS011;7018;50.838;4.226;2024-02-26T04:43:22;0.23;;;0.23;;
13895;SDS011;7018;50.838;4.226;2024-02-26T04:45:49;0.40;;;0.40;;
13895;SDS011;7018;50.838;4.226;2024-02-26T04:48:17;0.23;;;0.23;;
13895;SDS011;7018;50.838;4.226;2024-02-26T04:50:45;0.20;;;0.20;;
13895;SDS011;7018;50.838;4.226;2024-02-26T04:53:13;0.10;;;0.10;;
13895;SDS011;7018;50.838;4.226;2024-02-26T04:55:40;0.20;;;0.20;;
13895;SDS011;7018;50.838;4.226;2024-02-26T04:58:08;0.10;;;0.10;;
13895;SDS011;7018;50.838;4.226;2024-02-26T05:00:35;0.20;;;0.20;;
13895;SDS011;7018;50.838;4.226;2024-02-26T05:03:03;0.20;;;0.20;;
13895;SDS011;7018;50.838;4.226;2024-02-26T05:05:31;0.20;;;0.20;;
13895;SDS011;7018;50.838;4.226;2024-02-26T05:07:58;0.20;;;0.20;;
13895;SDS011;7018;50.838;4.226;2024-02-26T05:10:26;0.20;;;0.20;;
13895;SDS011;7018;50.838;4.226;2024-02-26T05:12:54;0.20;;;0.20;;
13895;SDS011;7018;50.838;4.226;2024-02-26T05:15:22;0.20;;;0.20;;
13895;SDS011;7018;50.838;4.226;2024-02-26T05:17:50;0.20;;;0.20;;
13895;SDS011;7018;50.838;4.226;2024-02-26T05:20:20;0.20;;;0.20;;
13895;SDS011;7018;50.838;4.226;2024-02-26T05:22:47;0.20;;;0.20;;
13895;SDS011;7018;50.838;4.226;2024-02-26T05:25:16;0.10;;;0.10;;
13895;SDS011;7018;50.838;4.226;2024-02-26T05:27:44;0.17;;;0.17;;
13895;SDS011;7018;50.838;4.226;2024-02-26T05:30:12;0.10;;;0.10;;
13895;SDS011;7018;50.838;4.226;2024-02-26T05:32:40;0.30;;;0.30;;
13895;SDS011;7018;50.838;4.226;2024-02-26T05:35:07;0.20;;;0.20;;
13895;SDS011;7018;50.838;4.226;2024-02-26T05:37:35;0.17;;;0.17;;
13895;SDS011;7018;50.838;4.226;2024-02-26T05:40:03;0.20;;;0.20;;
13895;SDS011;7018;50.838;4.226;2024-02-26T05:42:31;0.30;;;0.30;;
13895;SDS011;7018;50.838;4.226;2024-02-26T05:45:00;0.10;;;0.10;;
13895;SDS011;7018;50.838;4.226;2024-02-26T05:47:33;0.30;;;0.30;;
13895;SDS011;7018;50.838;4.226;2024-02-26T05:50:01;0.20;;;0.20;;
13895;SDS011;7018;50.838;4.226;2024-02-26T05:52:29;0.20;;;0.20;;
13895;SDS011;7018;50.838;4.226;2024-02-26T05:54:57;0.17;;;0.17;;
13895;SDS011;7018;50.838;4.226;2024-02-26T05:57:25;0.20;;;0.20;;
13895;SDS011;7018;50.838;4.226;2024-02-26T05:59:53;0.30;;;0.30;;
13895;SDS011;7018;50.838;4.226;2024-02-26T06:02:21;0.20;;;0.20;;
13895;SDS011;7018;50.838;4.226;2024-02-26T06:04:49;0.30;;;0.30;;
13895;SDS011;7018;50.838;4.226;2024-02-26T06:07:17;0.10;;;0.10;;
13895;SDS011;7018;50.838;4.226;2024-02-26T06:09:45;0.20;;;0.20;;
13895;SDS011;7018;50.838;4.226;2024-02-26T06:12:12;0.20;;;0.20;;
13895;SDS011;7018;50.838;4.226;2024-02-26T06:14:41;0.10;;;0.10;;
13895;SDS011;7018;50.838;4.226;2024-02-26T06:17:08;0.20;;;0.20;;
13895;SDS011;7018;50.838;4.226;2024-02-26T06:19:36;0.20;;;0.20;;
13895;SDS011;7018;50.838;4.226;2024-02-26T06:22:04;0.20;;;0.20;;
13895;SDS011;7018;50.838;4.226;2024-02-26T06:24:32;0.30;;;0.30;;
13895;SDS011;7018;50.838;4.226;2024-02-26T06:27:00;0.30;;;0.30;;
13895;SDS011;7018;50.838;4.226;2024-02-26T06:29:28;0.13;;;0.13;;
13895;SDS011;7018;50.838;4.226;2024-02-26T06:31:55;0.10;;;0.10;;
13895;SDS011;7018;50.838;4.226;2024-02-26T06:34:22;0.30;;;0.30;;
13895;SDS011;7018;50.838;4.226;2024-02-26T06:36:50;0.10;;;0.10;;
13895;SDS011;7018;50.838;4.226;2024-02-26T06:39:18;0.30;;;0.30;;
13895;SDS011;7018;50.838;4.226;2024-02-26T06:41:46;0.10;;;0.10;;
13895;SDS011;7018;50.838;4.226;2024-02-26T06:44:14;0.10;;;0.10;;
13895;SDS011;7018;50.838;4.226;2024-02-26T06:46:42;0.30;;;0.30;;
13895;SDS011;7018;50.838;4.226;2024-02-26T06:49:09;0.20;;;0.20;;
13895;SDS011;7018;50.838;4.226;2024-02-26T06:51:37;0.20;;;0.20;;
13895;SDS011;7018;50.838;4.226;2024-02-26T06:54:05;0.20;;;0.20;;
13895;SDS011;7018;50.838;4.226;2024-02-26T06:56:32;0.30;;;0.30;;
13895;SDS011;7018;50.838;4.226;2024-02-26T06:59:00;0.30;;;0.30;;
13895;SDS011;7018;50.838;4.226;2024-02-26T07:01:28;0.20;;;0.20;;
13895;SDS011;7018;50.838;4.226;2024-02-26T07:03:57;0.20;;;0.20;;
13895;SDS011;7018;50.838;4.226;2024-02-26T07:06:25;0.20;;;0.20;;
13895;SDS011;7018;50.838;4.226;2024-02-26T07:08:53;0.20;;;0.20;;
13895;SDS011;7018;50.838;4.226;2024-02-26T07:11:20;0.30;;;0.30;;
13895;SDS011;7018;50.838;4.226;2024-02-26T07:13:48;0.20;;;0.20;;
13895;SDS011;7018;50.838;4.226;2024-02-26T07:16:16;0.20;;;0.20;;
13895;SDS011;7018;50.838;4.226;2024-02-26T07:18:44;0.20;;;0.20;;
13895;SDS011;7018;50.838;4.226;2024-02-26T07:21:12;0.20;;;0.20;;
13895;SDS011;7018;50.838;4.226;2024-02-26T07:23:40;0.30;;;0.30;;
13895;SDS011;7018;50.838;4.226;2024-02-26T07:26:07;0.20;;;0.20;;
13895;SDS011;7018;50.838;4.226;2024-02-26T07:28:35;0.23;;;0.23;;
13895;SDS011;7018;50.838;4.226;2024-02-26T07:31:03;0.17;;;0.17;;
13895;SDS011;7018;50.838;4.226;2024-02-26T07:33:31;0.20;;;0.20;;
13895;SDS011;7018;50.838;4.226;2024-02-26T07:35:58;0.30;;;0.30;;
13895;SDS011;7018;50.838;4.226;2024-02-26T07:38:26;0.20;;;0.20;;
13895;SDS011;7018;50.838;4.226;2024-02-26T07:40:56;0.20;;;0.20;;
13895;SDS011;7018;50.838;4.226;2024-02-26T07:43:24;0.20;;;0.20;;
13895;SDS011;7018;50.838;4.226;2024-02-26T07:45:52;0.20;;;0.20;;
13895;SDS011;7018;50.838;4.226;2024-02-26T07:48:20;0.30;;;0.30;;
13895;SDS011;7018;50.838;4.226;2024-02-26T07:50:48;0.20;;;0.20;;
13895;SDS011;7018;50.838;4.226;2024-02-26T07:53:16;0.20;;;0.20;;
13895;SDS011;7018;50.838;4.226;2024-02-26T07:55:43;0.20;;;0.20;;
13895;SDS011;7018;50.838;4.226;2024-02-26T07:58:13;0.20;;;0.20;;
13895;SDS011;7018;50.838;4.226;2024-02-26T08:00:41;0.13;;;0.13;;
13895;SDS011;7018;50.838;4.226;2024-02-26T08:03:08;0.20;;;0.20;;
13895;SDS011;7018;50.838;4.226;2024-02-26T08:05:36;0.20;;;0.20;;
13895;SDS011;7018;50.838;4.226;2024-02-26T08:08:06;0.10;;;0.10;;
13895;SDS011;7018;50.838;4.226;2024-02-26T08:10:34;0.20;;;0.20;;
13895;SDS011;7018;50.838;4.226;2024-02-26T08:13:02;0.23;;;0.23;;
13895;SDS011;7018;50.838;4.226;2024-02-26T08:15:32;0.20;;;0.20;;
13895;SDS011;7018;50.838;4.226;2024-02-26T08:18:01;0.20;;;0.20;;
13895;SDS011;7018;50.838;4.226;2024-02-26T08:20:30;0.20;;;0.20;;
13895;SDS011;7018;50.838;4.226;2024-02-26T08:22:58;0.20;;;0.20;;
13895;SDS011;7018;50.838;4.226;2024-02-26T08:25:26;0.23;;;0.23;;
13895;SDS011;7018;50.838;4.226;2024-02-26T08:27:53;0.20;;;0.20;;
13895;SDS011;7018;50.838;4.226;2024-02-26T08:30:21;0.23;;;0.23;;
13895;SDS011;7018;50.838;4.226;2024-02-26T08:32:49;0.20;;;0.20;;
13895;SDS011;7018;50.838;4.226;2024-02-26T08:35:16;0.40;;;0.40;;
13895;SDS011;7018;50.838;4.226;2024-02-26T08:37:44;0.20;;;0.20;;
13895;SDS011;7018;50.838;4.226;2024-02-26T08:40:13;0.30;;;0.30;;
13895;SDS011;7018;50.838;4.226;2024-02-26T08:42:41;0.20;;;0.20;;
13895;SDS011;7018;50.838;4.226;2024-02-26T08:45:09;0.20;;;0.20;;
13895;SDS011;7018;50.838;4.226;2024-02-26T08:47:37;0.20;;;0.20;;
13895;SDS011;7018;50.838;4.226;2024-02-26T08:50:05;0.13;;;0.13;;
13895;SDS011;7018;50.838;4.226;2024-02-26T08:52:35;0.20;;;0.20;;
13895;SDS011;7018;50.838;4.226;2024-02-26T08:55:04;0.20;;;0.20;;
13895;SDS011;7018;50.838;4.226;2024-02-26T08:57:32;0.20;;;0.20;;
13895;SDS011;7018;50.838;4.226;2024-02-26T09:00:00;0.20;;;0.20;;
13895;SDS011;7018;50.838;4.226;2024-02-26T09:02:28;0.17;;;0.17;;
13895;SDS011;7018;50.838;4.226;2024-02-26T09:04:56;0.20;;;0.20;;
13895;SDS011;7018;50.838;4.226;2024-02-26T09:07:24;0.20;;;0.20;;
13895;SDS011;7018;50.838;4.226;2024-02-26T09:09:52;0.30;;;0.30;;
13895;SDS011;7018;50.838;4.226;2024-02-26T09:12:19;0.20;;;0.20;;
13895;SDS011;7018;50.838;4.226;2024-02-26T09:14:47;0.30;;;0.30;;
13895;SDS011;7018;50.838;4.226;2024-02-26T09:17:15;0.13;;;0.13;;
13895;SDS011;7018;50.838;4.226;2024-02-26T09:19:43;0.20;;;0.20;;
13895;SDS011;7018;50.838;4.226;2024-02-26T09:22:11;0.20;;;0.20;;
13895;SDS011;7018;50.838;4.226;2024-02-26T09:24:40;0.20;;;0.20;;
13895;SDS011;7018;50.838;4.226;2024-02-26T09:27:08;0.20;;;0.20;;
13895;SDS011;7018;50.838;4.226;2024-02-26T09:29:36;0.23;;;0.23;;
13895;SDS011;7018;50.838;4.226;2024-02-26T09:32:04;0.20;;;0.20;;
13895;SDS011;7018;50.838;4.226;2024-02-26T09:34:34;0.20;;;0.20;;
13895;SDS011;7018;50.838;4.226;2024-02-26T09:37:02;0.27;;;0.27;;
13895;SDS011;7018;50.838;4.226;2024-02-26T09:39:30;0.23;;;0.23;;
13895;SDS011;7018;50.838;4.226;2024-02-26T09:41:58;0.20;;;0.20;;
13895;SDS011;7018;50.838;4.226;2024-02-26T09:44:26;0.10;;;0.10;;
13895;SDS011;7018;50.838;4.226;2024-02-26T09:46:57;0.20;;;0.20;;
13895;SDS011;7018;50.838;4.226;2024-02-26T09:49:25;0.30;;;0.30;;
13895;SDS011;7018;50.838;4.226;2024-02-26T09:51:53;0.30;;;0.30;;
13895;SDS011;7018;50.838;4.226;2024-02-26T09:54:21;0.20;;;0.20;;
13895;SDS011;7018;50.838;4.226;2024-02-26T09:56:49;0.30;;;0.30;;
13895;SDS011;7018;50.838;4.226;2024-02-26T09:59:19;0.30;;;0.30;;
13895;SDS011;7018;50.838;4.226;2024-02-26T10:01:47;0.23;;;0.23;;
13895;SDS011;7018;50.838;4.226;2024-02-26T10:04:15;0.20;;;0.20;;
13895;SDS011;7018;50.838;4.226;2024-02-26T10:06:43;0.20;;;0.20;;
13895;SDS011;7018;50.838;4.226;2024-02-26T10:09:13;0.20;;;0.20;;
13895;SDS011;7018;50.838;4.226;2024-02-26T10:11:42;0.30;;;0.30;;
13895;SDS011;7018;50.838;4.226;2024-02-26T10:14:10;0.20;;;0.20;;
13895;SDS011;7018;50.838;4.226;2024-02-26T10:16:38;0.20;;;0.20;;
13895;SDS011;7018;50.838;4.226;2024-02-26T10:19:06;0.27;;;0.27;;
13895;SDS011;7018;50.838;4.226;2024-02-26T10:21:34;0.10;;;0.10;;
13895;SDS011;7018;50.838;4.226;2024-02-26T10:24:02;0.10;;;0.10;;
13895;SDS011;7018;50.838;4.226;2024-02-26T10:26:30;0.20;;;0.20;;
13895;SDS011;7018;50.838;4.226;2024-02-26T10:28:59;0.20;;;0.20;;
13895;SDS011;7018;50.838;4.226;2024-02-26T10:31:27;0.30;;;0.30;;
13895;SDS011;7018;50.838;4.226;2024-02-26T10:33:57;0.20;;;0.20;;
13895;SDS011;7018;50.838;4.226;2024-02-26T10:36:25;0.30;;;0.30;;
13895;SDS011;7018;50.838;4.226;2024-02-26T10:39:04;0.20;;;0.20;;
13895;SDS011;7018;50.838;4.226;2024-02-26T10:41:35;0.20;;;0.20;;
13895;SDS011;7018;50.838;4.226;2024-02-26T10:44:03;0.30;;;0.30;;
13895;SDS011;7018;50.838;4.226;2024-02-26T10:46:31;0.30;;;0.30;;
13895;SDS011;7018;50.838;4.226;2024-02-26T10:48:59;0.30;;;0.30;;
13895;SDS011;7018;50.838;4.226;2024-02-26T10:51:27;0.20;;;0.20;;
13895;SDS011;7018;50.838;4.226;2024-02-26T10:53:56;0.30;;;0.30;;
13895;SDS011;7018;50.838;4.226;2024-02-26T10:56:27;0.20;;;0.20;;
13895;SDS011;7018;50.838;4.226;2024-02-26T10:58:55;0.20;;;0.20;;
13895;SDS011;7018;50.838;4.226;2024-02-26T11:01:24;0.20;;;0.20;;
13895;SDS011;7018;50.838;4.226;2024-02-26T11:03:52;0.40;;;0.40;;
13895;SDS011;7018;50.838;4.226;2024-02-26T11:06:21;0.30;;;0.30;;
13895;SDS011;7018;50.838;4.226;2024-02-26T11:08:49;0.30;;;0.30;;
13895;SDS011;7018;50.838;4.226;2024-02-26T11:11:17;0.30;;;0.30;;
13895;SDS011;7018;50.838;4.226;2024-02-26T11:13:46;0.20;;;0.20;;
13895;SDS011;7018;50.838;4.226;2024-02-26T11:16:18;0.20;;;0.20;;
13895;SDS011;7018;50.838;4.226;2024-02-26T11:18:46;0.30;;;0.30;;
13895;SDS011;7018;50.838;4.226;2024-02-26T11:21:17;0.33;;;0.33;;
13895;SDS011;7018;50.838;4.226;2024-02-26T11:23:45;0.30;;;0.30;;
13895;SDS011;7018;50.838;4.226;2024-02-26T11:26:14;0.20;;;0.20;;
13895;SDS011;7018;50.838;4.226;2024-02-26T11:28:43;0.20;;;0.20;;
13895;SDS011;7018;50.838;4.226;2024-02-26T11:31:12;0.20;;;0.20;;
13895;SDS011;7018;50.838;4.226;2024-02-26T11:33:40;0.30;;;0.30;;
13895;SDS011;7018;50.838;4.226;2024-02-26T11:36:11;0.30;;;0.30;;
13895;SDS011;7018;50.838;4.226;2024-02-26T11:38:40;0.27;;;0.27;;
13895;SDS011;7018;50.838;4.226;2024-02-26T11:41:08;0.30;;;0.30;;
13895;SDS011;7018;50.838;4.226;2024-02-26T11:46:34;0.33;;;0.33;;
13895;SDS011;7018;50.838;4.226;2024-02-26T11:51:56;0.30;;;0.30;;
13895;SDS011;7018;50.838;4.226;2024-02-26T12:00:13;0.37;;;0.37;;
13895;SDS011;7018;50.838;4.226;2024-02-26T12:07:46;0.20;;;0.20;;
13895;SDS011;7018;50.838;4.226;2024-02-26T12:10:15;0.40;;;0.40;;
13895;SDS011;7018;50.838;4.226;2024-02-26T12:12:43;0.20;;;0.20;;
13895;SDS011;7018;50.838;4.226;2024-02-26T12:15:12;0.23;;;0.23;;
13895;SDS011;7018;50.838;4.226;2024-02-26T12:17:42;0.30;;;0.30;;
13895;SDS011;7018;50.838;4.226;2024-02-26T12:20:16;0.30;;;0.30;;
13895;SDS011;7018;50.838;4.226;2024-02-26T12:22:45;0.20;;;0.20;;
13895;SDS011;7018;50.838;4.226;2024-02-26T12:25:15;0.23;;;0.23;;
13895;SDS011;7018;50.838;4.226;2024-02-26T12:27:43;0.40;;;0.40;;
13895;SDS011;7018;50.838;4.226;2024-02-26T12:30:11;0.37;;;0.37;;
13895;SDS011;7018;50.838;4.226;2024-02-26T12:32:39;0.30;;;0.30;;
13895;SDS011;7018;50.838;4.226;2024-02-26T12:35:07;0.40;;;0.40;;
13895;SDS011;7018;50.838;4.226;2024-02-26T12:37:35;0.37;;;0.37;;
13895;SDS011;7018;50.838;4.226;2024-02-26T12:40:06;0.20;;;0.20;;
13895;SDS011;7018;50.838;4.226;2024-02-26T12:42:35;0.30;;;0.30;;
13895;SDS011;7018;50.838;4.226;2024-02-26T12:45:07;0.23;;;0.23;;
13895;SDS011;7018;50.838;4.226;2024-02-26T12:47:41;0.30;;;0.30;;
13895;SDS011;7018;50.838;4.226;2024-02-26T12:50:09;0.20;;;0.20;;
13895;SDS011;7018;50.838;4.226;2024-02-26T12:52:42;0.30;;;0.30;;
13895;SDS011;7018;50.838;4.226;2024-02-26T12:55:17;0.37;;;0.37;;
13895;SDS011;7018;50.838;4.226;2024-02-26T12:57:46;0.30;;;0.30;;
13895;SDS011;7018;50.838;4.226;2024-02-26T13:00:16;0.30;;;0.30;;
13895;SDS011;7018;50.838;4.226;2024-02-26T13:02:45;0.20;;;0.20;;
13895;SDS011;7018;50.838;4.226;2024-02-26T13:05:13;0.20;;;0.20;;
13895;SDS011;7018;50.838;4.226;2024-02-26T13:07:42;0.40;;;0.40;;
13895;SDS011;7018;50.838;4.226;2024-02-26T13:10:10;0.20;;;0.20;;
13895;SDS011;7018;50.838;4.226;2024-02-26T13:12:44;0.30;;;0.30;;
13895;SDS011;7018;50.838;4.226;2024-02-26T13:15:17;0.30;;;0.30;;
13895;SDS011;7018;50.838;4.226;2024-02-26T13:17:45;0.40;;;0.40;;
13895;SDS011;7018;50.838;4.226;2024-02-26T13:20:24;0.40;;;0.40;;
13895;SDS011;7018;50.838;4.226;2024-02-26T13:22:59;0.30;;;0.30;;
13895;SDS011;7018;50.838;4.226;2024-02-26T13:25:27;0.47;;;0.47;;
13895;SDS011;7018;50.838;4.226;2024-02-26T13:28:05;0.40;;;0.40;;
13895;SDS011;7018;50.838;4.226;2024-02-26T13:30:33;0.30;;;0.30;;
13895;SDS011;7018;50.838;4.226;2024-02-26T13:33:07;0.30;;;0.30;;
13895;SDS011;7018;50.838;4.226;2024-02-26T13:35:35;0.30;;;0.30;;
13895;SDS011;7018;50.838;4.226;2024-02-26T13:38:05;0.23;;;0.23;;
13895;SDS011;7018;50.838;4.226;2024-02-26T13:40:33;0.20;;;0.20;;
13895;SDS011;7018;50.838;4.226;2024-02-26T13:43:01;0.30;;;0.30;;
13895;SDS011;7018;50.838;4.226;2024-02-26T13:45:29;0.30;;;0.30;;
13895;SDS011;7018;50.838;4.226;2024-02-26T13:48:01;0.20;;;0.20;;
13895;SDS011;7018;50.838;4.226;2024-02-26T13:50:32;0.23;;;0.23;;
13895;SDS011;7018;50.838;4.226;2024-02-26T13:53:00;0.30;;;0.30;;
13895;SDS011;7018;50.838;4.226;2024-02-26T13:55:28;0.20;;;0.20;;
13895;SDS011;7018;50.838;4.226;2024-02-26T13:57:57;0.20;;;0.20;;
13895;SDS011;7018;50.838;4.226;2024-02-26T14:00:26;0.30;;;0.30;;
13895;SDS011;7018;50.838;4.226;2024-02-26T14:02:54;0.30;;;0.30;;
13895;SDS011;7018;50.838;4.226;2024-02-26T14:05:22;0.30;;;0.30;;
13895;SDS011;7018;50.838;4.226;2024-02-26T14:07:50;0.30;;;0.30;;
13895;SDS011;7018;50.838;4.226;2024-02-26T14:10:18;0.30;;;0.30;;
13895;SDS011;7018;50.838;4.226;2024-02-26T14:12:46;0.33;;;0.33;;
13895;SDS011;7018;50.838;4.226;2024-02-26T14:15:13;0.30;;;0.30;;
13895;SDS011;7018;50.838;4.226;2024-02-26T14:17:41;0.33;;;0.33;;
13895;SDS011;7018;50.838;4.226;2024-02-26T14:20:10;0.20;;;0.20;;
13895;SDS011;7018;50.838;4.226;2024-02-26T14:22:37;0.20;;;0.20;;
13895;SDS011;7018;50.838;4.226;2024-02-26T14:25:05;0.20;;;0.20;;
13895;SDS011;7018;50.838;4.226;2024-02-26T14:27:35;0.27;;;0.27;;
13895;SDS011;7018;50.838;4.226;2024-02-26T14:30:03;0.40;;;0.40;;
13895;SDS011;7018;50.838;4.226;2024-02-26T14:32:31;0.30;;;0.30;;
13895;SDS011;7018;50.838;4.226;2024-02-26T14:35:06;0.30;;;0.30;;
13895;SDS011;7018;50.838;4.226;2024-02-26T14:37:36;0.73;;;0.73;;
13895;SDS011;7018;50.838;4.226;2024-02-26T14:40:05;0.83;;;0.83;;
13895;SDS011;7018;50.838;4.226;2024-02-26T14:42:34;0.40;;;0.40;;
13895;SDS011;7018;50.838;4.226;2024-02-26T14:45:02;0.43;;;0.43;;
13895;SDS011;7018;50.838;4.226;2024-02-26T14:47:34;0.20;;;0.20;;
13895;SDS011;7018;50.838;4.226;2024-02-26T14:50:02;0.30;;;0.30;;
13895;SDS011;7018;50.838;4.226;2024-02-26T14:52:29;0.50;;;0.50;;
13895;SDS011;7018;50.838;4.226;2024-02-26T14:54:58;0.20;;;0.20;;
13895;SDS011;7018;50.838;4.226;2024-02-26T14:57:26;0.33;;;0.33;;
13895;SDS011;7018;50.838;4.226;2024-02-26T14:59:53;0.40;;;0.40;;
13895;SDS011;7018;50.838;4.226;2024-02-26T15:02:21;1.20;;;1.10;;
13895;SDS011;7018;50.838;4.226;2024-02-26T15:04:49;0.53;;;0.53;;
13895;SDS011;7018;50.838;4.226;2024-02-26T15:07:17;2.07;;;1.97;;
13895;SDS011;7018;50.838;4.226;2024-02-26T15:09:46;1.47;;;1.43;;
13895;SDS011;7018;50.838;4.226;2024-02-26T15:12:14;0.90;;;0.90;;
13895;SDS011;7018;50.838;4.226;2024-02-26T15:14:44;1.07;;;1.07;;
13895;SDS011;7018;50.838;4.226;2024-02-26T15:17:11;1.30;;;1.30;;
13895;SDS011;7018;50.838;4.226;2024-02-26T15:19:40;0.60;;;0.60;;
13895;SDS011;7018;50.838;4.226;2024-02-26T15:22:08;0.90;;;0.90;;
13895;SDS011;7018;50.838;4.226;2024-02-26T15:24:36;1.23;;;1.23;;